Flight Track Log - Related Links

Times and Time Zones

All times are in EDT time to prevent confusion due to time zone crossing. See the CES2841 flight status page for this flight to view local times or setup timezone preferences in your user account.


Time Position Orientation Groundspeed Altitude Reporting Facility
EDT Latitude Longitude Course Direction KTS MPH feet Rate Location/Type
Thu 07:57:00 AM 33.2902 118.4744 348° North  Level Estimated
Thu 07:58:00 AM 33.3934 118.4481 348° North  Level Estimated
Thu 07:59:00 AM 33.4966 118.4217 348° North  Level Estimated
Thu 08:00:00 AM 33.5997 118.3953 348° North  Level Estimated
Thu 08:01:00 AM 33.7029 118.3688 348° North  Level Estimated
Thu 08:02:00 AM 33.8060 118.3422 348° North  Level Estimated
Thu 08:03:00 AM 33.9092 118.3155 348° North  Level Estimated
Thu 08:04:00 AM 34.0123 118.2888 348° North  Level Estimated
Thu 08:05:00 AM 34.1154 118.2621 348° North  Level Estimated
Thu 08:06:00 AM 34.2186 118.2352 348° North  Level Estimated
Thu 08:07:00 AM 34.3217 118.2083 348° North  Level Estimated
Thu 08:08:00 AM 34.4248 118.1814 348° North  Level Estimated
Thu 08:09:00 AM 34.5279 118.1543 348° North  Level Estimated
Thu 08:10:00 AM 34.6310 118.1272 348° North  Level Estimated
Thu 08:11:00 AM 34.7341 118.1001 348° North  Level Estimated
Thu 08:12:00 AM 34.8372 118.0728 348° North  Level Estimated
Thu 08:13:00 AM 34.9403 118.0455 348° North  Level Estimated
Thu 08:14:00 AM 35.0434 118.0182 348° North  Level Estimated
Thu 08:15:00 AM 35.1464 117.9907 348° North  Level Estimated
Thu 08:16:00 AM 35.2495 117.9632 348° North  Level Estimated
Thu 08:17:00 AM 35.3525 117.9356 348° North  Level Estimated
Thu 08:18:00 AM 35.4556 117.9080 348° North  Level Estimated
Thu 08:19:00 AM 35.5586 117.8802 348° North  Level Estimated
Thu 08:20:00 AM 35.6617 117.8524 348° North  Level Estimated
Thu 08:21:00 AM 35.7647 117.8246 348° North  Level Estimated
Thu 08:22:00 AM 35.8677 117.7966 348° North  Level Estimated
Thu 08:23:00 AM 35.9708 117.7686 348° North  Level Estimated
Thu 08:24:00 AM 36.0738 117.7405 348° North  Level Estimated
Thu 08:25:00 AM 36.1768 117.7124 348° North  Level Estimated
Thu 08:26:00 AM 36.2798 117.6842 348° North  Level Estimated
Thu 08:27:00 AM 36.3828 117.6559 348° North  Level Estimated
Thu 08:28:00 AM 36.4857 117.6275 348° North  Level Estimated
Thu 08:29:00 AM 36.5887 117.5990 347° North  Level Estimated
Thu 08:30:00 AM 36.6917 117.5705 347° North  Level Estimated
Thu 08:31:00 AM 36.7947 117.5419 347° North  Level Estimated
Thu 08:32:00 AM 36.8976 117.5132 347° North  Level Estimated
Thu 08:33:00 AM 37.0006 117.4844 347° North  Level Estimated
Thu 08:34:00 AM 37.1035 117.4556 347° North  Level Estimated
Thu 08:35:00 AM 37.2065 117.4267 347° North  Level Estimated
Thu 08:36:00 AM 37.3094 117.3977 347° North  Level Estimated
Thu 08:37:00 AM 37.4123 117.3686 347° North  Level Estimated
Thu 08:38:00 AM 37.5152 117.3394 347° North  Level Estimated
Thu 08:39:00 AM 37.6181 117.3102 347° North  Level Estimated
Thu 08:40:00 AM 37.7211 117.2809 347° North  Level Estimated
Thu 08:41:00 AM 37.8240 117.2514 347° North  Level Estimated
Thu 08:42:00 AM 37.9268 117.2220 347° North  Level Estimated
Thu 08:43:00 AM 38.0297 117.1924 347° North  Level Estimated
Thu 08:44:00 AM 38.1326 117.1628 347° North  Level Estimated
Thu 08:45:00 AM 38.2355 117.1330 347° North  Level Estimated
Thu 08:46:00 AM 38.3383 117.1032 347° North  Level Estimated
Thu 08:47:00 AM 38.4034 117.0843 347° North  Level Estimated
Thu 08:48:00 AM 38.4685 117.0653 347° North  Level Estimated
Thu 08:49:00 AM 38.5336 117.0463 347° North  Level Estimated
Thu 08:50:00 AM 38.5986 117.0273 347° North  Level Estimated
Thu 08:51:00 AM 38.6637 117.0083 347° North  Level Estimated
Thu 08:52:00 AM 38.7288 116.9892 347° North  Level Estimated
Thu 08:53:00 AM 38.7938 116.9701 347° North  Level Estimated
Thu 08:54:00 AM 38.8589 116.9509 347° North  Level Estimated
Thu 08:55:00 AM 38.9240 116.9317 347° North  Level Estimated
Thu 08:56:00 AM 38.9890 116.9125 347° North  Level Estimated
Thu 08:57:00 AM 39.0541 116.8932 347° North  Level Estimated
Thu 08:58:00 AM 39.1191 116.8739 347° North  Level Estimated
Thu 08:58:56 AM 36.8143 116.9495 344° North 456 525 25,600  Level FlightAware ADS-B
Thu 08:59:00 AM 39.1842 116.8546 347° North  Level Estimated
Thu 08:59:32 AM 36.8410 116.9393 344° North 456 525 25,500  Level FlightAware ADS-B
Thu 09:00:36 AM 37.0185 116.8715 343° North 468 539 25,500 61 Level FlightAware ADS-B
Thu 09:01:11 AM 37.0901 116.8444 344° North 468 539 25,600 185 Climbing FlightAware ADS-B
Thu 09:01:41 AM 37.1576 116.8188 344° North 467 537 25,700 100 Climbing FlightAware ADS-B
Thu 09:02:11 AM 37.2204 116.7948 343° North 465 535 25,700 -98 Level FlightAware ADS-B
Thu 09:02:42 AM 37.2831 116.7708 344° North 464 534 25,600 -200 Descending FlightAware ADS-B
Thu 09:03:11 AM 37.3369 116.7503 344° North 458 527 25,500 -1,119 Descending FlightAware ADS-B
Thu 09:03:41 AM 37.4036 116.7248 343° North 450 518 24,500 -2,200 Descending FlightAware ADS-B
Thu 09:04:11 AM 37.4619 116.7025 343° North 444 511 23,300 -2,500 Descending FlightAware ADS-B
Thu 09:04:41 AM 37.5198 116.6802 344° North 439 505 22,000 -2,441 Descending FlightAware ADS-B
Thu 09:05:10 AM 37.5625 116.6638 343° North 429 494 20,900 -2,200 Descending FlightAware ADS-B
Thu 09:05:41 AM 37.6339 116.6362 343° North 415 478 19,800 -1,014 Descending FlightAware ADS-B
Thu 09:06:21 AM 37.7049 116.6088 343° North 385 443 19,700 -85 Descending FlightAware ADS-B
Thu 09:06:52 AM 37.7572 116.5885 343° North 387 445 19,700  Level FlightAware ADS-B
Thu 09:07:21 AM 37.8080 116.5691 344° North 391 450 19,700  Level FlightAware ADS-B
Thu 09:07:51 AM 37.8608 116.5491 344° North 392 451 19,700  Level FlightAware ADS-B
Thu 09:08:22 AM 37.9123 116.5295 344° North 385 443 19,700  Level FlightAware ADS-B
Thu 09:08:51 AM 37.9629 116.5102 344° North 383 441 19,700  Level FlightAware ADS-B
Thu 09:09:10 AM 37.9931 116.5037 359° North 393 452 19,700  Level FlightAware ADS-B
Thu 09:09:21 AM 38.0146 116.5064 10° North 399 459 19,700  Level FlightAware ADS-B
Thu 09:09:52 AM 38.0706 116.5209 11° North 403 464 19,700  Level FlightAware ADS-B
Thu 09:10:22 AM 38.1265 116.5344 10° North 401 461 19,700 -508 Level FlightAware ADS-B
Thu 09:10:51 AM 38.1812 116.5473 10° North 397 457 19,200 -1,400 Descending FlightAware ADS-B
Thu 09:11:22 AM 38.2347 116.5602 10° North 386 444 18,300 -1,900 Descending FlightAware ADS-B
Thu 09:11:51 AM 38.2873 116.5729 10° North 378 435 17,300 -2,034 Descending FlightAware ADS-B
Thu 09:12:21 AM 38.3388 116.5854 10° North 371 427 16,300 -1,900 Descending FlightAware ADS-B
Thu 09:12:51 AM 38.3880 116.5972 10° North 366 421 15,400 -1,944 Descending FlightAware ADS-B
Thu 09:13:32 AM 38.4546 116.6131 10° North 359 413 14,000 -1,055 Descending FlightAware ADS-B
Thu 09:14:22 AM 38.5343 116.6323 10° North 346 398 13,800 -152 Descending FlightAware ADS-B
Thu 09:14:51 AM 38.5816 116.6438 10° North 346 398 13,800  Level FlightAware ADS-B
Thu 09:15:22 AM 38.6284 116.6551 10° North 344 396 13,800  Level FlightAware ADS-B
Thu 09:15:51 AM 38.6754 116.6665 10° North 347 399 13,800  Level FlightAware ADS-B
Thu 09:16:21 AM 38.7227 116.6780 10° North 343 395 13,800  Level FlightAware ADS-B
Thu 09:16:51 AM 38.7696 116.6893 10° North 343 395 13,800  Level FlightAware ADS-B
Thu 09:17:21 AM 38.8163 116.7008 10° North 340 391 13,800  Level FlightAware ADS-B
Thu 09:17:51 AM 38.8615 116.7118 10° North 341 392 13,800  Level FlightAware ADS-B
Thu 09:18:21 AM 38.9092 116.7235 10° North 339 390 13,800  Level FlightAware ADS-B
Thu 09:18:52 AM 38.9552 116.7347 10° North 335 386 13,800  Level FlightAware ADS-B
Thu 09:19:22 AM 38.9989 116.7454 10° North 333 383 13,800  Level FlightAware ADS-B
Thu 09:19:52 AM 39.0454 116.7569 10° North 334 384 13,800  Level FlightAware ADS-B
Thu 09:20:52 AM 39.1368 116.7794 10° North 330 380 13,800  Level FlightAware ADS-B
Thu 09:21:22 AM 39.1816 116.7901 North 332 382 13,800  Level FlightAware ADS-B
Thu 09:21:31 AM 39.1972 116.7899 354° North 336 387 13,800  Level FlightAware ADS-B
Thu 09:21:42 AM 39.2107 116.7857 341° North 342 394 13,800  Level FlightAware ADS-B
Thu 09:22:01 AM 39.2399 116.7664 330° Northwest 330 380 13,800  Level FlightAware ADS-B
Thu 09:22:31 AM 39.2784 116.7368 330° Northwest 315 362 13,800 -590 Level FlightAware ADS-B
Thu 09:23:02 AM 39.3156 116.7084 330° Northwest 306 352 13,200 -1,300 Descending FlightAware ADS-B
Thu 09:23:31 AM 39.3533 116.6875 347° North 294 338 12,500 -1,600 Descending FlightAware ADS-B
Thu 09:24:02 AM 39.3937 116.6796 354° North 294 338 11,600 -1,600 Descending FlightAware ADS-B
Thu 09:24:31 AM 39.4331 116.6737 354° North 290 334 10,900 -1,500 Descending FlightAware ADS-B
Thu 09:25:02 AM 39.4737 116.6676 353° North 287 330 10,100 -1,696 Descending FlightAware ADS-B
Thu 09:25:17 AM 39.4938 116.6645 354° North 286 329 9,600 -1,862 Descending FlightAware ADS-B
Thu 09:25:31 AM 39.5133 116.6614 353° North 284 327 9,200 -1,655 Descending FlightAware ADS-B
Thu 09:25:46 AM 39.5333 116.6583 354° North 282 325 8,800 -1,600 Descending FlightAware ADS-B
Thu 09:26:01 AM 39.5523 116.6554 354° North 281 323 8,400 -1,548 Descending FlightAware ADS-B
Thu 09:26:17 AM 39.5707 116.6526 354° North 279 321 8,000 -1,548 Descending FlightAware ADS-B
Thu 09:26:32 AM 39.5911 116.6494 354° North 279 321 7,600 -1,862 Descending FlightAware ADS-B
Thu 09:26:46 AM 39.6102 116.6464 354° North 279 321 7,100 -1,862 Descending FlightAware ADS-B
Thu 09:27:01 AM 39.6278 116.6438 354° North 278 320 6,700 -1,161 Descending FlightAware ADS-B
Thu 09:27:17 AM 39.6486 116.6405 354° North 268 308 6,500 -600 Descending FlightAware ADS-B
Thu 09:27:31 AM 39.6665 116.6377 353° North 260 299 6,400 -600 Descending FlightAware ADS-B
Thu 09:27:47 AM 39.6828 116.6351 353° North 249 287 6,200 -581 Descending FlightAware ADS-B
Thu 09:28:02 AM 39.7005 116.6323 353° North 241 277 6,100 -171 Descending FlightAware ADS-B
Thu 09:28:22 AM 39.7231 116.6290 354° North 242 278 6,100  Level FlightAware ADS-B
Thu 09:28:41 AM 39.7454 116.6254 354° North 242 278 6,100 -171 Level FlightAware ADS-B
Thu 09:28:57 AM 39.7618 116.6229 354° North 232 267 6,000 -514 Descending FlightAware ADS-B
Thu 09:29:16 AM 39.7814 116.6200 354° North 218 251 5,800 -706 Descending FlightAware ADS-B
Thu 09:29:31 AM 39.7971 116.6175 354° North 216 249 5,600 -800 Descending FlightAware ADS-B
Thu 09:29:46 AM 39.8120 116.6152 354° North 216 249 5,400 -1,200 Descending FlightAware ADS-B
Thu 09:30:01 AM 39.8262 116.6129 354° North 216 249 5,000 -1,400 Descending FlightAware ADS-B
Thu 09:30:16 AM 39.8403 116.6107 354° North 216 249 4,700 -1,200 Descending FlightAware ADS-B
Thu 09:30:31 AM 39.8556 116.6083 354° North 216 249 4,400 -1,161 Descending FlightAware ADS-B
Thu 09:30:47 AM 39.8709 116.6059 354° North 216 249 4,100 -1,000 Descending FlightAware ADS-B
Thu 09:31:01 AM 39.8851 116.6037 354° North 216 249 3,900 -1,000 Descending FlightAware ADS-B
Thu 09:31:17 AM 39.8997 116.6014 354° North 216 249 3,600 -1,161 Descending FlightAware ADS-B
Thu 09:31:32 AM 39.9143 116.5991 354° North 216 249 3,300 -1,241 Descending FlightAware ADS-B
Thu 09:31:46 AM 39.9282 116.5969 354° North 216 249 3,000 -1,034 Descending FlightAware ADS-B
Thu 09:32:01 AM 39.9432 116.5947 354° North 216 249 2,800 -1,000 Descending FlightAware ADS-B
Thu 09:32:16 AM 39.9571 116.5924 354° North 216 249 2,500 -1,200 Descending FlightAware ADS-B
Thu 09:32:36 AM 39.9761 116.5894 354° North 201 231 2,100 -1,000 Descending FlightAware ADS-B
Thu 09:32:52 AM 39.9873 116.5877 354° North 188 216 1,900 -1,000 Descending FlightAware ADS-B
Thu 09:33:06 AM 40.0017 116.5854 354° North 173 199 1,600 -1,034 Descending FlightAware ADS-B
Thu 09:33:21 AM 40.0128 116.5837 354° North 161 185 1,400 -800 Descending FlightAware ADS-B
Thu 09:35:00 AM 40.0801 116.5846 North  Level Estimated
Thu 09:36:00 AM 40.0801 116.5846 North  Level Estimated
Thu 09:37:00 AM 40.0801 116.5846 North  Level Estimated
Thu 09:38:00 AM 40.0801 116.5846 North  Level Estimated
Thu 09:39:00 AM 40.0801 116.5846 North  Level Estimated
Thu 09:40:00 AM 40.0801 116.5846 North  Level Estimated
Thu 09:41:00 AM 40.0801 116.5846 North  Level Estimated
Thu 09:42:00 AM 40.0801 116.5846 North  Level Estimated

Login

Don't have an account? Register now (free) for customized features, flight alerts, and more!